Terminal Aerodrome Forecast
Issued by NWS Cleveland, OH

Home | Current Version | Previous Version | Text Only | Print | Product List | Glossary On
Versions: 1 2 3 4 5 6 7 8 9 10 11 12 13 14 15 16 17 18
000
FTUS41 KCLE 271134
TAFTOL
TAF
KTOL 271134Z 2712/2812 21010KT P6SM SCT150
     FM271400 23012G22KT P6SM SCT015
     FM271600 23015G25KT P6SM BKN040
     FM271800 25015G25KT P6SM BKN050
      TEMPO 2719/2722 VRB25G40KT 3SM -TSRA OVC035CB
     FM280100 28010KT P6SM FEW120
     FM280900 VRB03KT 3SM BR BKN020=

USA.gov is the U.S. government's official web portal to all federal, state and local government web resources and services.